createdAt,value
2018-07-23T00:01:11.237Z,13.50
2018-07-23T00:03:41.725Z,14.17
2018-07-23T00:06:12.258Z,15.00
2018-07-23T00:08:42.256Z,13.77
2018-07-23T00:11:12.326Z,13.00
2018-07-23T00:13:42.291Z,14.50
2018-07-23T00:16:12.331Z,15.00
2018-07-23T00:18:42.342Z,15.50
2018-07-23T00:21:12.333Z,13.80
2018-07-23T00:23:42.300Z,14.10
2018-07-23T00:26:12.294Z,14.60
2018-07-23T00:28:42.241Z,15.30
2018-07-23T00:31:12.236Z,14.60
2018-07-23T00:33:42.775Z,15.73
2018-07-23T00:36:13.317Z,15.70
2018-07-23T00:38:43.787Z,15.57
2018-07-23T00:41:14.358Z,14.63
2018-07-23T00:43:44.703Z,14.90
2018-07-23T00:46:15.083Z,15.70
2018-07-23T00:48:45.491Z,17.67
2018-07-23T00:51:15.592Z,15.20
2018-07-23T00:53:45.586Z,15.83
2018-07-23T00:56:15.546Z,14.60
2018-07-23T00:58:45.599Z,16.00
2018-07-23T01:01:15.617Z,14.97
2018-07-23T01:03:45.619Z,14.83
2018-07-23T01:06:15.733Z,15.67
2018-07-23T01:08:46.068Z,16.50
2018-07-23T01:11:16.513Z,15.97
2018-07-23T01:13:46.935Z,16.60
2018-07-23T01:16:17.634Z,15.73
2018-07-23T01:18:48.260Z,15.47
2018-07-23T01:21:18.838Z,15.50
2018-07-23T01:23:49.113Z,16.60
2018-07-23T01:26:19.617Z,16.57
2018-07-23T01:28:50.172Z,16.57
2018-07-23T01:31:20.647Z,16.73
2018-07-23T01:33:50.876Z,17.03
2018-07-23T01:36:21.303Z,16.73
2018-07-23T01:38:51.776Z,17.57
2018-07-23T01:41:22.261Z,16.27
2018-07-23T01:43:52.800Z,18.33
2018-07-23T01:46:23.074Z,18.37
2018-07-23T01:48:53.363Z,16.50
2018-07-23T01:51:23.731Z,17.53
2018-07-23T01:53:54.366Z,16.43
2018-07-23T01:56:24.919Z,18.67
2018-07-23T01:58:55.180Z,17.60
2018-07-23T02:01:25.672Z,18.73
2018-07-23T02:03:56.103Z,18.20
2018-07-23T02:06:26.064Z,18.10
2018-07-23T02:08:56.021Z,18.10
2018-07-23T02:11:25.996Z,17.77
2018-07-23T02:13:55.996Z,17.03
2018-07-23T02:16:26.091Z,15.07
2018-07-23T02:18:56.102Z,18.17
2018-07-23T02:21:26.176Z,16.27
2018-07-23T02:23:56.211Z,16.20
2018-07-23T02:26:26.182Z,16.67
2018-07-23T02:28:56.567Z,16.97
2018-07-23T02:31:27.272Z,16.27
2018-07-23T02:33:57.888Z,15.77
2018-07-23T02:36:28.280Z,17.50
2018-07-23T02:38:58.810Z,15.97
2018-07-23T02:41:29.290Z,17.20
2018-07-23T02:43:59.759Z,18.50
2018-07-23T02:46:30.238Z,17.70
2018-07-23T02:49:00.637Z,16.70
2018-07-23T02:51:30.999Z,17.63
2018-07-23T02:54:01.254Z,17.67
2018-07-23T02:56:31.837Z,17.80
2018-07-23T02:59:02.419Z,16.73
2018-07-23T03:01:32.708Z,20.10
2018-07-23T03:04:02.721Z,17.10
2018-07-23T03:06:33.164Z,18.77
2018-07-23T03:09:03.622Z,18.10
2018-07-23T03:11:33.869Z,16.50
2018-07-23T03:14:04.282Z,19.07
2018-07-23T03:16:34.748Z,16.70
2018-07-23T03:19:05.072Z,17.03
2018-07-23T03:21:35.443Z,17.13
2018-07-23T03:24:05.791Z,17.60
2018-07-23T03:26:36.163Z,18.33
2018-07-23T03:29:06.713Z,19.07
2018-07-23T03:31:36.714Z,18.20
2018-07-23T03:34:06.729Z,17.93
2018-07-23T03:36:36.662Z,17.67
2018-07-23T03:39:10.103Z,17.70
2018-07-23T03:41:40.587Z,19.77
2018-07-23T03:44:10.961Z,17.63
2018-07-23T03:46:41.508Z,18.10
2018-07-23T03:49:11.729Z,18.87
2018-07-23T03:51:42.138Z,17.57
2018-07-23T03:54:12.527Z,16.93
2018-07-23T03:56:43.110Z,18.00
2018-07-23T03:59:13.644Z,19.33
2018-07-23T04:01:44.107Z,17.00
2018-07-23T04:04:16.649Z,15.80
2018-07-23T04:06:48.361Z,17.50
2018-07-23T04:09:18.777Z,16.20
2018-07-23T04:11:49.744Z,16.73
2018-07-23T04:14:20.233Z,19.33
2018-07-23T04:16:50.807Z,19.23
2018-07-23T04:19:21.399Z,18.87
2018-07-23T04:21:52.314Z,17.33
2018-07-23T04:24:22.661Z,16.83
2018-07-23T04:26:53.221Z,18.07
2018-07-23T04:29:23.915Z,15.57
2018-07-23T04:31:54.357Z,19.07
2018-07-23T04:34:25.038Z,17.00
2018-07-23T04:36:55.583Z,18.13
2018-07-23T04:39:26.038Z,17.87
2018-07-23T04:41:56.467Z,18.17
2018-07-23T04:44:26.794Z,16.63
2018-07-23T04:46:57.293Z,17.37
2018-07-23T04:49:27.849Z,18.80
2018-07-23T04:51:58.175Z,21.27
2018-07-23T04:54:28.839Z,19.17
2018-07-23T04:56:59.029Z,16.70
2018-07-23T04:59:29.384Z,21.97
2018-07-23T05:01:59.856Z,17.83
2018-07-23T05:04:30.321Z,18.63
2018-07-23T05:07:00.815Z,19.30
2018-07-23T05:09:31.278Z,18.30
2018-07-23T05:12:01.788Z,18.07
2018-07-23T05:14:32.278Z,17.70
2018-07-23T05:17:02.692Z,20.07
2018-07-23T05:19:33.210Z,18.10
2018-07-23T05:22:03.884Z,17.93
2018-07-23T05:24:34.446Z,18.70
2018-07-23T05:27:05.017Z,17.73
2018-07-23T05:29:35.394Z,17.87
2018-07-23T05:32:05.670Z,18.67
2018-07-23T05:34:36.085Z,16.47
2018-07-23T05:37:06.566Z,20.00
2018-07-23T05:39:36.660Z,19.57
2018-07-23T05:42:07.079Z,20.70
2018-07-23T05:44:37.587Z,20.23
2018-07-23T05:47:08.227Z,20.37
2018-07-23T05:49:38.927Z,20.27
2018-07-23T05:52:09.257Z,18.73
2018-07-23T05:54:39.770Z,22.43
2018-07-23T05:57:10.351Z,17.20
2018-07-23T05:59:40.941Z,16.97
2018-07-23T06:02:12.456Z,18.20
2018-07-23T06:04:42.920Z,18.30
2018-07-23T06:07:13.335Z,17.47
2018-07-23T06:09:44.000Z,19.47
2018-07-23T06:12:14.341Z,17.50
2018-07-23T06:14:44.980Z,16.03
2018-07-23T06:17:15.638Z,17.50
2018-07-23T06:19:46.122Z,17.07
2018-07-23T06:22:16.513Z,16.40
2018-07-23T06:24:46.771Z,17.17
2018-07-23T06:27:16.816Z,15.73
2018-07-23T06:29:46.822Z,16.90
2018-07-23T06:32:16.883Z,17.47
2018-07-23T06:34:46.909Z,14.83
2018-07-23T06:37:16.962Z,14.90
2018-07-23T06:39:47.326Z,15.67
2018-07-23T06:42:17.322Z,17.03
2018-07-23T06:44:47.359Z,14.73
2018-07-23T06:47:17.379Z,16.27
2018-07-23T06:49:47.360Z,18.87
2018-07-23T06:52:17.399Z,14.10
2018-07-23T06:54:47.388Z,16.90
2018-07-23T06:57:17.418Z,15.77
2018-07-23T06:59:47.413Z,16.50
2018-07-23T07:02:18.158Z,18.67
2018-07-23T07:04:48.200Z,16.57
2018-07-23T07:07:18.163Z,16.80
2018-07-23T07:09:48.130Z,20.83
2018-07-23T07:12:18.186Z,17.07
2018-07-23T07:14:48.139Z,19.57
2018-07-23T07:17:18.217Z,15.60
2018-07-23T07:19:48.209Z,16.03
2018-07-23T07:22:21.094Z,16.37
2018-07-23T07:24:51.029Z,15.17
2018-07-23T07:27:21.116Z,15.70
2018-07-23T07:29:51.146Z,15.10
2018-07-23T07:32:21.502Z,16.93
2018-07-23T07:34:51.638Z,15.07
2018-07-23T07:37:21.989Z,14.63
2018-07-23T07:39:53.145Z,14.40
2018-07-23T07:42:23.656Z,13.83
2018-07-23T07:44:54.061Z,24.63
2018-07-23T07:47:24.467Z,16.13
2018-07-23T07:49:54.971Z,16.80
2018-07-23T07:52:27.581Z,20.73
2018-07-23T07:54:57.979Z,15.57
2018-07-23T07:57:28.628Z,15.87
2018-07-23T08:00:00.122Z,13.60
2018-07-23T08:02:30.528Z,14.40
2018-07-23T08:05:01.542Z,13.60
2018-07-23T08:07:32.826Z,12.20
2018-07-23T08:10:03.213Z,16.07
2018-07-23T08:12:33.732Z,14.97
2018-07-23T08:15:09.568Z,11.87
2018-07-23T08:17:39.976Z,12.77
2018-07-23T08:20:11.303Z,14.07
2018-07-23T08:22:41.907Z,17.43
2018-07-23T08:25:12.151Z,11.50
2018-07-23T08:27:43.687Z,10.73
2018-07-23T08:30:14.890Z,10.93
2018-07-23T08:32:45.271Z,10.80
2018-07-23T08:35:16.462Z,9.27
2018-07-23T08:37:46.925Z,10.03
2018-07-23T08:40:17.373Z,8.80
2018-07-23T08:42:47.935Z,8.53
2018-07-23T08:45:18.530Z,7.63
2018-07-23T08:47:48.890Z,8.50
2018-07-23T08:50:19.218Z,7.63
2018-07-23T08:52:49.505Z,9.07
2018-07-23T08:55:19.318Z,7.73
2018-07-23T08:57:49.854Z,9.80
2018-07-23T09:00:20.273Z,7.23
2018-07-23T09:02:50.827Z,7.73
2018-07-23T09:05:21.229Z,8.33
2018-07-23T09:07:52.564Z,8.57
2018-07-23T09:10:22.980Z,15.50
2018-07-23T09:12:53.612Z,8.10
2018-07-23T09:15:23.584Z,9.50
2018-07-23T09:17:53.860Z,9.23
2018-07-23T09:20:24.645Z,7.83
2018-07-23T09:22:55.187Z,8.17
2018-07-23T09:25:29.918Z,9.00
2018-07-23T09:28:00.344Z,9.70
2018-07-23T09:30:35.592Z,7.23
2018-07-23T09:33:06.036Z,9.20
2018-07-23T09:35:36.279Z,8.37
2018-07-23T09:38:06.271Z,8.43
2018-07-23T09:40:36.709Z,9.40
2018-07-23T09:43:06.632Z,8.13
2018-07-23T09:45:36.920Z,7.70
2018-07-23T09:48:07.363Z,8.10
2018-07-23T09:50:37.936Z,9.63
2018-07-23T09:53:08.424Z,9.50
2018-07-23T09:55:38.966Z,9.00
2018-07-23T09:58:08.792Z,8.07
2018-07-23T10:00:44.238Z,8.37
2018-07-23T10:03:14.775Z,9.47
2018-07-23T10:05:45.180Z,9.07
2018-07-23T10:08:15.691Z,8.73
2018-07-23T10:10:46.020Z,18.23
2018-07-23T10:13:16.217Z,10.70
2018-07-23T10:15:46.625Z,8.33
2018-07-23T10:18:17.091Z,8.80
2018-07-23T10:20:47.799Z,8.77
2018-07-23T10:23:18.123Z,8.70
2018-07-23T10:25:48.609Z,9.20
2018-07-23T10:28:19.143Z,8.30
2018-07-23T10:30:49.581Z,10.17
2018-07-23T10:33:19.872Z,9.30
2018-07-23T10:35:49.644Z,7.73
2018-07-23T10:38:20.136Z,8.60
2018-07-23T10:40:50.532Z,8.37
2018-07-23T10:43:20.939Z,8.77
2018-07-23T10:45:51.438Z,9.20
2018-07-23T10:48:21.916Z,8.70
2018-07-23T10:50:52.471Z,8.10
2018-07-23T10:53:22.977Z,9.80
2018-07-23T10:55:53.328Z,8.43
2018-07-23T10:58:24.048Z,10.33
2018-07-23T11:00:54.586Z,8.50
2018-07-23T11:03:25.276Z,9.10
2018-07-23T11:05:55.692Z,11.57
2018-07-23T11:08:26.154Z,8.80
2018-07-23T11:10:56.743Z,7.93
2018-07-23T11:13:27.436Z,8.73
2018-07-23T11:15:58.087Z,9.40
2018-07-23T11:18:28.435Z,8.17
2018-07-23T11:20:58.823Z,9.33
2018-07-23T11:23:29.018Z,8.83
2018-07-23T11:25:59.548Z,9.37
2018-07-23T11:28:29.846Z,9.30
2018-07-23T11:31:00.452Z,9.70
2018-07-23T11:33:31.147Z,9.00
2018-07-23T11:36:01.968Z,8.47
2018-07-23T11:38:32.718Z,8.30
2018-07-23T11:41:03.919Z,10.43
2018-07-23T11:43:34.524Z,9.57
2018-07-23T11:46:05.254Z,9.93
2018-07-23T11:48:35.848Z,8.77
2018-07-23T11:51:06.495Z,10.00
2018-07-23T11:53:36.348Z,8.70
2018-07-23T11:56:06.618Z,9.20
2018-07-23T11:58:36.467Z,10.47
2018-07-23T12:01:09.619Z,9.20
2018-07-23T12:03:40.167Z,8.67
2018-07-23T12:06:10.680Z,9.40
2018-07-23T12:08:41.093Z,9.87
2018-07-23T12:11:11.596Z,9.30
2018-07-23T12:13:42.287Z,9.40
2018-07-23T12:16:13.167Z,10.10
2018-07-23T12:18:43.716Z,9.93
2018-07-23T12:21:14.279Z,10.20
2018-07-23T12:23:44.846Z,9.43
2018-07-23T12:26:15.434Z,8.20
2018-07-23T12:28:45.967Z,11.17
2018-07-23T12:31:17.473Z,11.17
2018-07-23T12:33:47.907Z,9.90
2018-07-23T12:36:18.489Z,9.10
2018-07-23T12:38:48.803Z,13.40
2018-07-23T12:41:19.385Z,10.27
2018-07-23T12:43:50.196Z,13.07
2018-07-23T12:46:20.945Z,10.70
2018-07-23T12:48:51.520Z,8.70
2018-07-23T12:51:22.070Z,9.40
2018-07-23T12:53:52.400Z,10.50
2018-07-23T12:56:22.419Z,11.43
2018-07-23T12:58:52.390Z,9.90
2018-07-23T13:01:22.399Z,8.97
2018-07-23T13:03:52.395Z,10.10
2018-07-23T13:06:22.452Z,9.53
2018-07-23T13:08:52.418Z,8.80
2018-07-23T13:11:22.447Z,10.93
2018-07-23T13:13:52.907Z,9.47
2018-07-23T13:16:23.510Z,11.43
2018-07-23T13:18:53.850Z,9.73
2018-07-23T13:21:24.433Z,8.10
2018-07-23T13:23:54.943Z,9.70
2018-07-23T13:26:25.502Z,9.70
2018-07-23T13:28:55.799Z,11.57
2018-07-23T13:31:25.762Z,8.77
2018-07-23T13:33:56.332Z,9.93
2018-07-23T13:36:26.589Z,9.87
2018-07-23T13:38:56.709Z,15.20
2018-07-23T13:41:26.776Z,11.30
2018-07-23T13:43:56.838Z,10.80
2018-07-23T13:46:26.846Z,9.17
2018-07-23T13:48:56.864Z,8.40
2018-07-23T13:51:26.990Z,11.30
2018-07-23T13:53:57.034Z,10.50
2018-07-23T13:56:27.073Z,9.90
2018-07-23T13:58:57.544Z,12.27
2018-07-23T14:01:27.635Z,13.20
2018-07-23T14:03:58.215Z,9.67
2018-07-23T14:06:28.771Z,9.90
2018-07-23T14:08:59.049Z,10.07
2018-07-23T14:11:29.583Z,9.30
2018-07-23T14:14:00.021Z,8.50
2018-07-23T14:16:30.379Z,9.07
2018-07-23T14:19:00.765Z,8.60
2018-07-23T14:21:31.302Z,9.00
2018-07-23T14:24:01.761Z,11.60
2018-07-23T14:26:32.431Z,11.27
2018-07-23T14:29:02.976Z,8.73
2018-07-23T14:31:33.582Z,9.53
2018-07-23T14:34:03.919Z,9.97
2018-07-23T14:36:34.220Z,9.47
2018-07-23T14:39:06.670Z,10.30
2018-07-23T14:41:37.414Z,9.03
2018-07-23T14:44:08.018Z,8.60
2018-07-23T14:46:38.894Z,8.30
2018-07-23T14:49:09.476Z,11.33
2018-07-23T14:51:40.069Z,9.63
2018-07-23T14:54:10.719Z,10.10
2018-07-23T14:56:40.955Z,8.70
2018-07-23T14:59:11.335Z,10.00
2018-07-23T15:01:41.852Z,9.83
2018-07-23T15:04:12.348Z,9.90
2018-07-23T15:06:42.575Z,9.00
2018-07-23T15:09:12.870Z,9.80
2018-07-23T15:11:42.771Z,9.93
2018-07-23T15:14:13.103Z,9.30
2018-07-23T15:16:43.427Z,9.90
2018-07-23T15:19:13.895Z,10.30
2018-07-23T15:21:44.374Z,9.57
2018-07-23T15:24:14.986Z,10.20
2018-07-23T15:26:45.421Z,8.83
2018-07-23T15:29:15.776Z,8.77
2018-07-23T15:31:46.172Z,10.30
2018-07-23T15:34:16.718Z,10.03
2018-07-23T15:36:47.266Z,9.53
2018-07-23T15:39:17.767Z,9.60
2018-07-23T15:41:48.052Z,14.43
2018-07-23T15:44:18.647Z,12.20
2018-07-23T15:46:49.023Z,23.57
2018-07-23T15:49:19.504Z,16.40
2018-07-23T15:51:49.974Z,11.00
2018-07-23T15:54:20.356Z,11.47
2018-07-23T15:56:52.095Z,10.83
2018-07-23T15:59:22.658Z,10.13
2018-07-23T16:01:52.926Z,9.30
2018-07-23T16:04:24.006Z,11.03
2018-07-23T16:06:54.359Z,10.20
2018-07-23T16:09:24.919Z,11.37
2018-07-23T16:11:55.542Z,10.30
2018-07-23T16:14:25.953Z,10.50
2018-07-23T16:16:56.439Z,11.30
2018-07-23T16:19:26.722Z,12.40
2018-07-23T16:21:57.163Z,11.53
2018-07-23T16:24:27.564Z,11.80
2018-07-23T16:26:58.831Z,11.27
2018-07-23T16:29:29.416Z,11.07
2018-07-23T16:31:59.807Z,10.23
2018-07-23T16:34:33.152Z,11.43
2018-07-23T16:37:03.493Z,12.50
2018-07-23T16:39:34.028Z,11.73
2018-07-23T16:42:04.486Z,12.90
2018-07-23T16:44:34.939Z,11.37
2018-07-23T16:47:05.179Z,12.10
2018-07-23T16:49:35.473Z,11.17
2018-07-23T16:52:05.990Z,12.07
2018-07-23T16:54:36.451Z,12.60
2018-07-23T16:57:06.978Z,14.53
2018-07-23T16:59:37.176Z,12.97
2018-07-23T17:02:07.532Z,12.20
2018-07-23T17:04:38.159Z,18.90
2018-07-23T17:07:08.660Z,30.57
2018-07-23T17:09:39.199Z,14.20
2018-07-23T17:12:09.556Z,13.90
2018-07-23T17:14:40.022Z,13.83
2018-07-23T17:17:10.455Z,11.73
2018-07-23T17:19:41.062Z,12.30
2018-07-23T17:22:11.644Z,12.73
2018-07-23T17:24:42.069Z,12.30
2018-07-23T17:27:12.396Z,11.40
2018-07-23T17:29:42.944Z,11.20
2018-07-23T17:32:13.474Z,12.83
2018-07-23T17:34:43.789Z,12.73
2018-07-23T17:37:14.197Z,12.80
2018-07-23T17:39:44.333Z,11.80
2018-07-23T17:42:14.826Z,11.50
2018-07-23T17:44:45.443Z,12.57
2018-07-23T17:47:16.008Z,12.13
2018-07-23T17:49:46.835Z,11.90
2018-07-23T17:52:17.455Z,10.40
2018-07-23T17:54:48.085Z,12.07
2018-07-23T17:57:18.597Z,11.47
2018-07-23T17:59:48.863Z,11.40
2018-07-23T18:02:19.202Z,23.17
2018-07-23T18:04:49.778Z,30.33
2018-07-23T18:07:20.267Z,26.03
2018-07-23T18:09:50.683Z,35.27
2018-07-23T18:12:21.109Z,22.83
2018-07-23T18:14:51.521Z,16.40
2018-07-23T18:17:21.799Z,13.13
2018-07-23T18:19:52.416Z,12.90
2018-07-23T18:22:22.864Z,11.83
2018-07-23T18:24:53.431Z,14.70
2018-07-23T18:27:23.465Z,11.70
2018-07-23T18:29:54.010Z,16.60
2018-07-23T18:32:24.608Z,13.50
2018-07-23T18:34:54.866Z,13.30
2018-07-23T18:37:25.298Z,13.07
2018-07-23T18:39:55.865Z,12.90
2018-07-23T18:42:26.449Z,11.93
2018-07-23T18:44:57.102Z,12.83
2018-07-23T18:47:27.635Z,12.47
2018-07-23T18:50:00.525Z,12.67
2018-07-23T18:52:31.676Z,12.83
2018-07-23T18:55:03.528Z,14.50
2018-07-23T18:57:33.901Z,14.10
2018-07-23T19:00:05.811Z,13.73
2018-07-23T19:02:36.460Z,13.27
2018-07-23T19:05:07.469Z,16.67
2018-07-23T19:07:37.749Z,18.97
2018-07-23T19:10:10.866Z,14.27
2018-07-23T19:12:42.016Z,19.10
2018-07-23T19:15:13.088Z,16.07
2018-07-23T19:17:44.960Z,20.67
2018-07-23T19:20:15.617Z,22.10
2018-07-23T19:22:46.082Z,14.00
2018-07-23T19:25:16.628Z,13.40
2018-07-23T19:27:47.071Z,14.47
2018-07-23T19:30:18.621Z,14.70
2018-07-23T19:32:49.409Z,25.03
2018-07-23T19:35:20.333Z,18.27
2018-07-23T19:37:51.781Z,15.10
2018-07-23T19:40:22.350Z,16.20
2018-07-23T19:42:53.598Z,17.20
2018-07-23T19:45:24.133Z,15.67
2018-07-23T19:47:55.137Z,15.03
2018-07-23T19:50:25.696Z,14.70
2018-07-23T19:52:56.204Z,18.13
2018-07-23T19:55:26.542Z,15.13
2018-07-23T19:57:56.640Z,16.50
2018-07-23T20:00:27.283Z,17.83
2018-07-23T20:02:57.296Z,15.97
2018-07-23T20:05:27.314Z,15.27
2018-07-23T20:07:57.395Z,14.60
2018-07-23T20:10:27.839Z,15.00
2018-07-23T20:12:58.423Z,20.53
2018-07-23T20:15:28.800Z,13.63
2018-07-23T20:17:59.361Z,12.90
2018-07-23T20:20:29.952Z,14.57
2018-07-23T20:23:00.214Z,14.80
2018-07-23T20:25:31.261Z,13.10
2018-07-23T20:28:01.571Z,13.57
2018-07-23T20:30:32.038Z,14.60
2018-07-23T20:33:02.533Z,13.77
2018-07-23T20:35:32.714Z,15.23
2018-07-23T20:38:03.313Z,14.05
2018-07-23T20:40:33.848Z,16.73
2018-07-23T20:43:04.331Z,15.07
2018-07-23T20:45:34.712Z,15.47
2018-07-23T20:48:05.119Z,15.80
2018-07-23T20:50:35.519Z,15.87
2018-07-23T20:53:06.053Z,16.37
2018-07-23T20:55:36.624Z,14.60
2018-07-23T20:58:06.864Z,14.77
2018-07-23T21:00:36.868Z,13.77
2018-07-23T21:03:07.754Z,14.00
2018-07-23T21:05:38.050Z,13.93
2018-07-23T21:08:08.113Z,13.43
2018-07-23T21:10:38.228Z,15.10
2018-07-23T21:13:08.592Z,14.07
2018-07-23T21:15:38.609Z,13.83
2018-07-23T21:18:09.063Z,15.23
2018-07-23T21:20:39.826Z,14.87
2018-07-23T21:23:10.143Z,14.57
2018-07-23T21:25:40.510Z,15.10
2018-07-23T21:28:11.118Z,15.13
2018-07-23T21:30:41.632Z,14.20
2018-07-23T21:33:11.853Z,13.77
2018-07-23T21:35:42.291Z,14.47
2018-07-23T21:38:12.989Z,14.97
2018-07-23T21:40:43.545Z,15.73
2018-07-23T21:43:13.881Z,14.73
2018-07-23T21:45:44.423Z,15.27
2018-07-23T21:48:14.886Z,13.73
2018-07-23T21:50:45.576Z,14.13
2018-07-23T21:53:16.090Z,15.80
2018-07-23T21:55:46.723Z,16.80
2018-07-23T21:58:17.378Z,14.23
2018-07-23T22:00:48.097Z,14.47
2018-07-23T22:03:18.634Z,16.33
2018-07-23T22:05:49.137Z,16.53
2018-07-23T22:08:19.486Z,14.50
2018-07-23T22:10:50.142Z,14.13
2018-07-23T22:13:20.744Z,14.90
2018-07-23T22:15:51.080Z,16.07
2018-07-23T22:18:21.547Z,14.50
2018-07-23T22:20:52.025Z,14.93
2018-07-23T22:23:22.528Z,15.90
2018-07-23T22:25:52.900Z,16.23
2018-07-23T22:28:23.332Z,17.10
2018-07-23T22:30:54.142Z,15.17
2018-07-23T22:33:24.670Z,15.60
2018-07-23T22:35:55.035Z,15.60
2018-07-23T22:38:25.635Z,15.40
2018-07-23T22:40:55.731Z,15.07
2018-07-23T22:43:25.831Z,14.90
2018-07-23T22:45:56.176Z,15.50
2018-07-23T22:48:26.091Z,14.97
2018-07-23T22:50:56.518Z,15.97
2018-07-23T22:53:27.635Z,14.53
2018-07-23T22:55:58.020Z,15.30
2018-07-23T22:58:28.725Z,17.03
2018-07-23T23:00:59.139Z,15.10
2018-07-23T23:03:29.517Z,15.50
2018-07-23T23:06:00.064Z,14.37
2018-07-23T23:08:30.425Z,14.90
2018-07-23T23:11:00.390Z,15.40
2018-07-23T23:13:30.391Z,16.27
2018-07-23T23:16:00.416Z,15.90
2018-07-23T23:18:30.496Z,17.37
2018-07-23T23:21:00.461Z,16.37
2018-07-23T23:23:30.756Z,15.70
2018-07-23T23:26:00.801Z,16.97
2018-07-23T23:28:30.781Z,17.17
2018-07-23T23:31:01.268Z,15.50
2018-07-23T23:33:31.722Z,17.77
2018-07-23T23:36:01.795Z,16.90
2018-07-23T23:38:31.816Z,18.97
2018-07-23T23:41:01.849Z,15.87
2018-07-23T23:43:31.936Z,15.57
2018-07-23T23:46:02.023Z,17.27
2018-07-23T23:48:32.001Z,17.00
2018-07-23T23:51:02.141Z,14.53
2018-07-23T23:53:32.191Z,15.77
2018-07-23T23:56:02.732Z,17.53
2018-07-23T23:58:33.358Z,16.70
